createdAt,value
2019-02-27T00:00:22.884Z,53.08
2019-02-27T00:05:19.902Z,53.46
2019-02-27T00:10:17.072Z,53.68
2019-02-27T00:15:14.292Z,53.87
2019-02-27T00:20:11.350Z,53.25
2019-02-27T00:25:08.355Z,53.33
2019-02-27T00:30:10.801Z,53.32
2019-02-27T00:35:07.774Z,53.33
2019-02-27T00:40:07.199Z,53.23
2019-02-27T00:45:08.116Z,54.05
2019-02-27T00:50:07.692Z,54.29
2019-02-27T00:55:06.463Z,53.84
2019-02-27T01:00:16.529Z,53.67
2019-02-27T01:05:13.904Z,53.62
2019-02-27T01:10:12.365Z,53.38
2019-02-27T01:15:13.748Z,53.37
2019-02-27T01:20:14.201Z,53.77
2019-02-27T01:25:11.959Z,53.83
2019-02-27T01:30:15.004Z,54.08
2019-02-27T01:35:17.502Z,53.91
2019-02-27T01:40:17.887Z,53.57
2019-02-27T01:45:20.570Z,53.62
2019-02-27T01:50:31.841Z,53.43
2019-02-27T01:55:28.900Z,53.81
2019-02-27T02:00:26.187Z,53.77
2019-02-27T02:05:27.146Z,53.78
2019-02-27T02:10:28.038Z,53.80
2019-02-27T02:15:44.812Z,53.83
2019-02-27T02:20:53.344Z,54.32
2019-02-27T02:26:26.589Z,53.81
2019-02-27T02:31:41.216Z,53.27
2019-02-27T02:37:14.238Z,53.37
2019-02-27T02:42:24.586Z,53.75
2019-02-27T02:48:06.369Z,54.09
2019-02-27T02:53:31.755Z,54.01
2019-02-27T02:59:24.309Z,53.71
2019-02-27T03:05:09.660Z,54.70
2019-02-27T03:10:26.592Z,53.96
2019-02-27T03:15:47.205Z,53.62
2019-02-27T03:20:55.488Z,53.99
2019-02-27T03:26:25.811Z,54.02
2019-02-27T03:31:40.289Z,54.01
2019-02-27T03:37:00.336Z,54.23
2019-02-27T03:42:30.864Z,54.73
2019-02-27T03:47:37.383Z,55.15
2019-02-27T03:52:58.218Z,54.80
2019-02-27T03:58:22.224Z,54.81
2019-02-27T04:03:57.970Z,55.98
2019-02-27T04:08:56.452Z,55.69
2019-02-27T04:13:53.565Z,55.68
2019-02-27T04:18:53.066Z,56.35
2019-02-27T04:23:50.093Z,56.19
2019-02-27T04:28:47.223Z,56.48
2019-02-27T04:33:44.477Z,56.38
2019-02-27T04:38:41.562Z,56.82
2019-02-27T04:43:38.597Z,56.54
2019-02-27T04:48:35.649Z,56.34
2019-02-27T04:53:32.640Z,56.70
2019-02-27T04:58:31.383Z,56.08
2019-02-27T05:03:31.220Z,56.55
2019-02-27T05:08:28.226Z,56.63
2019-02-27T05:13:25.177Z,56.74
2019-02-27T05:18:22.352Z,56.63
2019-02-27T05:23:22.335Z,56.43
2019-02-27T05:28:19.527Z,56.20
2019-02-27T05:33:18.008Z,56.57
2019-02-27T05:38:16.252Z,56.41
2019-02-27T05:43:15.255Z,56.13
2019-02-27T05:48:12.204Z,56.06
2019-02-27T05:53:11.409Z,56.34
2019-02-27T05:58:08.456Z,56.35
2019-02-27T06:03:05.391Z,55.91
2019-02-27T06:08:02.871Z,56.19
2019-02-27T06:13:01.813Z,56.04
2019-02-27T06:17:58.891Z,56.06
2019-02-27T06:22:55.849Z,55.78
2019-02-27T06:27:52.862Z,55.73
2019-02-27T06:32:49.899Z,55.90
2019-02-27T06:37:50.425Z,55.42
2019-02-27T06:42:47.100Z,55.71
2019-02-27T06:47:44.178Z,55.34
2019-02-27T06:52:42.462Z,55.37
2019-02-27T06:57:41.858Z,55.00
2019-02-27T07:02:40.800Z,54.68
2019-02-27T07:07:39.824Z,54.64
2019-02-27T07:12:37.072Z,54.52
2019-02-27T07:17:37.239Z,54.13
2019-02-27T07:23:22.949Z,53.79
2019-02-27T07:28:15.533Z,54.29
2019-02-27T07:33:14.498Z,54.26
2019-02-27T07:38:12.501Z,54.20
2019-02-27T07:43:09.551Z,54.13
2019-02-27T07:48:08.824Z,54.30
2019-02-27T07:53:06.186Z,53.33
2019-02-27T07:58:03.275Z,53.29
2019-02-27T08:03:02.228Z,53.68
2019-02-27T08:08:00.407Z,53.52
2019-02-27T08:13:00.330Z,53.54
2019-02-27T08:17:58.630Z,53.31
2019-02-27T08:22:55.861Z,53.00
2019-02-27T08:27:54.336Z,52.22
2019-02-27T08:32:57.418Z,51.77
2019-02-27T08:38:02.073Z,51.96
2019-02-27T08:42:54.192Z,51.34
2019-02-27T08:47:51.278Z,50.66
2019-02-27T08:52:51.439Z,50.88
2019-02-27T08:57:49.632Z,49.91
2019-02-27T09:02:46.209Z,48.15
2019-02-27T09:07:43.241Z,47.54
2019-02-27T09:12:40.441Z,48.02
2019-02-27T09:17:37.387Z,47.24
2019-02-27T09:22:36.789Z,46.47
2019-02-27T09:27:35.335Z,46.34
2019-02-27T09:32:32.217Z,45.90
2019-02-27T09:37:29.394Z,45.46
2019-02-27T09:42:26.563Z,45.74
2019-02-27T09:47:25.752Z,45.86
2019-02-27T09:52:27.841Z,47.47
2019-02-27T09:57:27.106Z,46.22
2019-02-27T10:02:27.411Z,46.88
2019-02-27T10:07:24.488Z,46.39
2019-02-27T10:12:21.629Z,46.39
2019-02-27T10:17:20.429Z,44.88
2019-02-27T10:22:21.142Z,45.71
2019-02-27T10:27:18.358Z,45.86
2019-02-27T10:32:17.656Z,44.38
2019-02-27T10:37:18.224Z,42.58
2019-02-27T10:42:13.780Z,42.90
2019-02-27T10:47:12.792Z,41.25
2019-02-27T10:52:13.113Z,41.65
2019-02-27T10:57:13.223Z,42.26
2019-02-27T11:02:12.384Z,44.13
2019-02-27T11:07:09.132Z,44.25
2019-02-27T11:12:08.075Z,45.48
2019-02-27T11:17:05.193Z,45.49
2019-02-27T11:22:02.255Z,45.53
2019-02-27T11:27:03.489Z,46.20
2019-02-27T11:32:00.268Z,45.30
2019-02-27T11:36:57.328Z,45.37
2019-02-27T11:41:54.350Z,45.89
2019-02-27T11:46:58.780Z,46.38
2019-02-27T11:51:50.619Z,46.66
2019-02-27T11:56:51.119Z,45.30
2019-02-27T12:01:55.368Z,45.34
2019-02-27T12:06:50.055Z,44.80
2019-02-27T12:11:48.740Z,46.16
2019-02-27T12:16:48.578Z,46.79
2019-02-27T12:21:44.922Z,46.31
2019-02-27T12:26:43.352Z,45.59
2019-02-27T12:31:40.442Z,45.84
2019-02-27T12:36:38.059Z,46.74
2019-02-27T12:41:35.091Z,47.52
2019-02-27T12:46:36.933Z,48.89
2019-02-27T12:51:35.261Z,48.18
2019-02-27T12:56:32.000Z,48.19
2019-02-27T13:01:29.918Z,47.62
2019-02-27T13:06:26.988Z,47.78
2019-02-27T13:11:24.120Z,47.38
2019-02-27T13:16:25.859Z,46.97
2019-02-27T13:21:22.921Z,46.28
2019-02-27T13:26:19.868Z,45.91
2019-02-27T13:31:18.768Z,45.94
2019-02-27T13:36:15.773Z,44.99
2019-02-27T13:41:14.116Z,45.53
2019-02-27T13:46:13.061Z,44.65
2019-02-27T13:51:10.189Z,44.78
2019-02-27T13:56:08.598Z,42.51
2019-02-27T14:01:07.579Z,41.99
2019-02-27T14:06:09.279Z,41.76
2019-02-27T14:11:04.523Z,41.00
2019-02-27T14:16:01.698Z,40.03
2019-02-27T14:21:02.388Z,40.01
2019-02-27T14:26:05.564Z,39.76
2019-02-27T14:31:02.032Z,40.60
2019-02-27T14:35:58.971Z,40.35
2019-02-27T14:40:57.011Z,39.81
2019-02-27T14:45:53.992Z,40.53
2019-02-27T14:50:55.932Z,41.18
2019-02-27T14:55:54.979Z,42.29
2019-02-27T15:00:52.024Z,42.43
2019-02-27T15:05:49.034Z,42.22
2019-02-27T15:10:48.041Z,42.08
2019-02-27T15:15:45.321Z,42.52
2019-02-27T15:20:42.291Z,43.18
2019-02-27T15:25:43.183Z,43.37
2019-02-27T15:30:38.186Z,44.56
2019-02-27T15:35:35.160Z,44.77
2019-02-27T15:40:33.779Z,45.96
2019-02-27T15:45:30.799Z,45.57
2019-02-27T15:50:35.133Z,46.20
2019-02-27T15:55:34.341Z,46.52
2019-02-27T16:00:31.058Z,46.97
2019-02-27T16:05:31.445Z,47.09
2019-02-27T16:10:27.729Z,46.82
2019-02-27T16:15:25.580Z,47.26
2019-02-27T16:20:23.970Z,47.21
2019-02-27T16:25:25.116Z,47.44
2019-02-27T16:30:31.117Z,47.79
2019-02-27T16:35:25.556Z,47.94
2019-02-27T16:40:24.766Z,48.14
2019-02-27T16:45:33.910Z,48.54
2019-02-27T16:50:34.479Z,49.18
2019-02-27T16:55:36.051Z,49.55
2019-02-27T17:00:34.881Z,50.16
2019-02-27T17:05:32.021Z,50.69
2019-02-27T17:10:33.526Z,51.17
2019-02-27T17:15:34.776Z,50.09
2019-02-27T17:20:29.916Z,50.46
2019-02-27T17:25:29.904Z,50.51
2019-02-27T17:30:36.598Z,50.18
2019-02-27T17:35:30.186Z,51.08
2019-02-27T17:40:29.032Z,51.60
2019-02-27T17:45:26.804Z,52.18
2019-02-27T17:50:24.074Z,52.04
2019-02-27T17:55:21.205Z,52.53
2019-02-27T18:00:43.825Z,52.79
2019-02-27T18:05:40.898Z,53.51
2019-02-27T18:10:38.356Z,53.95
2019-02-27T18:15:35.547Z,53.91
2019-02-27T18:20:35.610Z,53.20
2019-02-27T18:25:32.639Z,53.28
2019-02-27T18:30:29.609Z,54.39
2019-02-27T18:35:29.778Z,54.01
2019-02-27T18:40:27.121Z,54.17
2019-02-27T18:45:26.800Z,54.55
2019-02-27T18:50:24.803Z,54.49
2019-02-27T18:55:22.706Z,55.35
2019-02-27T19:00:29.475Z,56.08
2019-02-27T19:05:26.578Z,55.78
2019-02-27T19:10:23.976Z,56.73
2019-02-27T19:15:23.618Z,56.84
2019-02-27T19:20:26.163Z,56.58
2019-02-27T19:25:23.103Z,56.44
2019-02-27T19:30:20.401Z,56.31
2019-02-27T19:35:21.130Z,55.55
2019-02-27T19:40:19.149Z,55.24
2019-02-27T19:45:16.315Z,54.61
2019-02-27T19:50:13.701Z,54.21
2019-02-27T19:55:10.804Z,54.68
2019-02-27T20:00:22.334Z,54.30
2019-02-27T20:05:19.791Z,54.11
2019-02-27T20:10:17.334Z,54.52
2019-02-27T20:15:19.425Z,54.38
2019-02-27T20:20:19.982Z,53.72
2019-02-27T20:25:21.064Z,53.45
2019-02-27T20:30:20.284Z,52.88
2019-02-27T20:35:20.686Z,52.67
2019-02-27T20:40:20.335Z,52.48
2019-02-27T20:45:23.055Z,52.55
2019-02-27T20:50:39.485Z,52.30
2019-02-27T20:55:36.457Z,52.34
2019-02-27T21:00:36.540Z,53.04
2019-02-27T21:05:32.542Z,53.31
2019-02-27T21:10:33.690Z,51.99
2019-02-27T21:15:32.477Z,50.83
2019-02-27T21:20:29.526Z,50.88
2019-02-27T21:25:26.744Z,50.71
2019-02-27T21:30:24.860Z,49.91
2019-02-27T21:35:21.812Z,48.62
2019-02-27T21:40:19.177Z,48.50
2019-02-27T21:45:21.630Z,47.97
2019-02-27T21:50:23.319Z,47.57
2019-02-27T21:55:22.705Z,47.36
2019-02-27T22:00:29.021Z,46.48
2019-02-27T22:05:26.305Z,46.10
2019-02-27T22:15:29.309Z,45.85
2019-02-27T22:20:27.003Z,45.53
2019-02-27T22:25:24.192Z,45.16
2019-02-27T22:30:22.471Z,45.02
2019-02-27T22:35:21.559Z,45.28
2019-02-27T22:40:22.779Z,44.63
2019-02-27T22:45:20.178Z,44.64
2019-02-27T22:50:18.642Z,44.24
2019-02-27T22:55:15.607Z,44.79
2019-02-27T23:00:56.578Z,43.97
2019-02-27T23:05:53.787Z,44.76
2019-02-27T23:10:50.977Z,44.75
2019-02-27T23:15:48.038Z,45.26
2019-02-27T23:20:44.985Z,45.46
2019-02-27T23:25:41.970Z,45.26
2019-02-27T23:30:41.628Z,45.50
2019-02-27T23:35:38.674Z,45.39
2019-02-27T23:40:35.626Z,45.03
2019-02-27T23:45:32.374Z,45.01
2019-02-27T23:50:29.374Z,45.09
2019-02-27T23:55:26.339Z,45.27
